HTDA

Julius Nyerere International Airport

Dar es Salaam, Tanzania
HTDA 251100Z 2512/2618 13015KT 9999 BKN025 BECMG 2516/2519 SCT022 BECMG 2521/2524 13005KT TEMPO 2601/2607 13015KT 5000 RA BKN021
Issued Valid From Valid To
Sep-25 @ 11:00 UTC
(6 hours ago)
Sep-25 @ 12:00 UTC
(5 hours ago)
Sep-26 @ 18:00 UTC
(-1 days ago)
Expired Click to View Sep-25 @ 12:00 to Sep-25 @ 16:00
HTDA 251100Z 2512/2618 13015KT 9999 BKN025
Wind Visibility Clouds
130° at 15 knots 10,000+ meters
  • Broken at 2,500' AGL
Becoming Sep-25 @ 16:00 to Sep-25 @ 21:00
BECMG 2516/2519 SCT022
Wind Visibility Clouds
130° at 15 knots 10,000+ meters
  • Scattered at 2,200' AGL
Becoming Sep-25 @ 21:00 to Sep-26 @ 18:00
BECMG 2521/2524 13005KT
Wind Visibility Clouds
130° at 5 knots 10,000+ meters
  • Scattered at 2,200' AGL
Temporary Sep-26 @ 01:00 to Sep-26 @ 07:00
TEMPO 2601/2607 13015KT 5000 RA BKN021
Wind Visibility Clouds Conditions
130° at 15 knots 5,005 meters
  • Broken at 2,100' AGL
  • Rain
HTDA 251100Z 2512/2618 13015KT 9999 BKN025 BECMG 2516/2519 SCT022 BECMG 2521/2524 13005KT TEMPO 2601/2607 13015KT 5000 RA BKN021
Issued Sep-25 @ 11:00 UTC
(6 hours ago)
Valid From Sep-25 @ 12:00 UTC
(5 hours ago)
Valid To Sep-26 @ 18:00 UTC
(-1 days ago)
Sep-25 @ 12:00 - Sep-25 @ 16:00
Wind Visibility
130° at 15 knots 10,000+ meters
Clouds
  • Broken at 2,500' AGL
Becoming Sep-25 @ 16:00 - Sep-25 @ 21:00
Wind Visibility
130° at 15 knots 10,000+ meters
Clouds
  • Scattered at 2,200' AGL
Becoming Sep-25 @ 21:00 - Sep-26 @ 18:00
Wind Visibility
130° at 5 knots 10,000+ meters
Clouds
  • Scattered at 2,200' AGL
Temporary Sep-26 @ 01:00 - Sep-26 @ 07:00
Wind Visibility
130° at 15 knots 5,005 meters
Clouds
  • Broken at 2,100' AGL
Conditions
  • Rain